Time;durP1;ratioP1;P1;durP2;ratioP2;P2;SDS_P1;SDS_P2;PMS_P1;PMS_P2;Temp;Humidity;BMP_temperature;BMP_pressure;BME280_temperature;BME280_humidity;BME280_pressure;Samples;Min_cycle;Max_cycle;Signal;HPM_P1;HPM_P2
2021/01/31 00:00:55;;;;;;;;;;;5.20;89.40;;;;;;5059971;28;20019;-69
2021/01/31 00:03:22;;;;;;;;;;;5.20;89.20;;;;;;5072715;28;20458;-70
2021/01/31 00:05:49;;;;;;;;;;;5.20;89.00;;;;;;5073078;28;19935;-69
2021/01/31 00:08:16;;;;;;;;;;;5.10;89.30;;;;;;5072714;28;20319;-69
2021/01/31 00:10:43;;;;;;;;;;;5.10;89.30;;;;;;5063876;28;19930;-71
2021/01/31 00:13:10;;;;;;;;;;;5.10;89.40;;;;;;5070135;28;20005;-70
2021/01/31 00:15:38;;;;;;;;;;;5.10;89.60;;;;;;5065288;28;19925;-71
2021/01/31 00:18:04;;;;;;;;;;;5.10;89.30;;;;;;5072175;28;19998;-71
2021/01/31 00:20:32;;;;;;;;;;;5.10;89.00;;;;;;5073029;28;19924;-71
2021/01/31 00:22:58;;;;;;;;;;;5.00;88.90;;;;;;5072203;28;20458;-71
2021/01/31 00:25:24;;;;;;;;;;;5.00;89.00;;;;;;5073018;28;20368;-70
2021/01/31 00:27:52;;;;;;;;;;;4.90;88.80;;;;;;5071916;28;20023;-70
2021/01/31 00:30:19;;;;;;;;;;;4.90;88.90;;;;;;5069094;28;19963;-70
2021/01/31 00:32:46;;;;;;;;;;;4.90;89.20;;;;;;5078398;28;20032;-70
2021/01/31 00:35:13;;;;;;;;;;;4.90;89.40;;;;;;5072194;28;20337;-71
2021/01/31 00:37:39;;;;;;;;;;;4.80;89.10;;;;;;5072442;28;19938;-70
2021/01/31 00:40:06;;;;;;;;;;;4.80;89.20;;;;;;5072162;28;20015;-71
2021/01/31 00:42:32;;;;;;;;;;;4.80;89.20;;;;;;5072359;28;20015;-71
2021/01/31 00:45:00;;;;;;;;;;;4.80;88.00;;;;;;5072811;28;20454;-70
2021/01/31 00:47:26;;;;;;;;;;;4.80;88.00;;;;;;5068909;28;20016;-70
2021/01/31 00:49:52;;;;;;;;;;;4.80;87.90;;;;;;5054784;28;19929;-70
2021/01/31 00:52:20;;;;;;;;;;;4.70;86.30;;;;;;5067942;28;19924;-70
2021/01/31 00:54:46;;;;;;;;;;;4.60;86.30;;;;;;5072822;28;19925;-70
2021/01/31 00:57:12;;;;;;;;;;;4.70;86.40;;;;;;5070198;28;20739;-70
2021/01/31 00:59:39;;;;;;;;;;;4.60;85.60;;;;;;5072792;28;20018;-70
2021/01/31 01:02:07;;;;;;;;;;;4.50;85.80;;;;;;5072044;28;20019;-71
2021/01/31 01:04:33;;;;;;;;;;;4.50;86.10;;;;;;5072500;28;19931;-70
2021/01/31 01:06:59;;;;;;;;;;;4.50;86.40;;;;;;5072253;28;19928;-71
2021/01/31 01:09:26;;;;;;;;;;;4.40;86.60;;;;;;5071878;28;20410;-71
2021/01/31 01:11:52;;;;;;;;;;;4.40;87.10;;;;;;5072496;28;19993;-69
2021/01/31 01:14:18;;;;;;;;;;;4.40;87.20;;;;;;5072229;28;20361;-69
2021/01/31 01:16:45;;;;;;;;;;;4.50;87.30;;;;;;5069844;28;19943;-70
2021/01/31 01:19:12;;;;;;;;;;;4.50;87.40;;;;;;5072094;28;19924;-69
2021/01/31 01:21:38;;;;;;;;;;;4.50;87.50;;;;;;5070432;28;19942;-69
2021/01/31 01:24:04;;;;;;;;;;;4.40;88.50;;;;;;5071808;28;19928;-69
2021/01/31 01:26:31;;;;;;;;;;;4.40;88.10;;;;;;5072126;28;20016;-69
2021/01/31 01:28:58;;;;;;;;;;;4.40;87.80;;;;;;5072110;28;19924;-69
2021/01/31 01:31:24;;;;;;;;;;;4.30;88.50;;;;;;5071895;28;19932;-71
2021/01/31 01:33:51;;;;;;;;;;;4.30;89.10;;;;;;5077788;28;20004;-71
2021/01/31 01:36:18;;;;;;;;;;;4.30;89.30;;;;;;5058302;28;19928;-71
2021/01/31 01:38:44;;;;;;;;;;;4.20;89.60;;;;;;5072209;28;19928;-71
2021/01/31 01:41:11;;;;;;;;;;;4.30;89.80;;;;;;5071674;28;20355;-71
2021/01/31 01:43:37;;;;;;;;;;;4.20;90.00;;;;;;5072190;28;20346;-71
2021/01/31 01:46:18;;;;;;;;;;;4.20;90.00;;;;;;5071947;28;19934;-71
2021/01/31 01:48:45;;;;;;;;;;;4.20;90.00;;;;;;5056395;28;20022;-71
2021/01/31 01:51:12;;;;;;;;;;;4.20;90.00;;;;;;5072161;28;20641;-71
2021/01/31 01:53:39;;;;;;;;;;;4.20;90.20;;;;;;5074565;28;20325;-71
2021/01/31 01:56:08;;;;;;;;;;;4.20;90.30;;;;;;5073382;28;19935;-71
2021/01/31 01:58:35;;;;;;;;;;;4.20;90.30;;;;;;5075559;28;20019;-71
2021/01/31 02:01:01;;;;;;;;;;;4.20;90.30;;;;;;5072628;28;20067;-71
2021/01/31 02:03:30;;;;;;;;;;;4.20;90.40;;;;;;5069776;28;20372;-71
2021/01/31 02:05:57;;;;;;;;;;;4.20;90.40;;;;;;5073591;28;20331;-71
2021/01/31 02:08:24;;;;;;;;;;;4.20;90.30;;;;;;5075336;28;19925;-71
2021/01/31 02:10:51;;;;;;;;;;;4.30;90.40;;;;;;5075074;28;19932;-71
2021/01/31 02:13:17;;;;;;;;;;;4.30;90.30;;;;;;5075135;28;19924;-71
2021/01/31 02:15:45;;;;;;;;;;;4.30;90.40;;;;;;5075179;28;20011;-71
2021/01/31 02:18:17;;;;;;;;;;;4.20;90.40;;;;;;5072799;28;19924;-71
2021/01/31 02:21:08;;;;;;;;;;;4.30;90.30;;;;;;5075242;28;19928;-69
2021/01/31 02:23:43;;;;;;;;;;;4.20;90.30;;;;;;5074820;28;19969;-69
2021/01/31 02:26:11;;;;;;;;;;;4.20;90.20;;;;;;5073663;28;20011;-69
2021/01/31 02:28:55;;;;;;;;;;;4.20;90.80;;;;;;5066223;28;19925;-69
2021/01/31 02:31:27;;;;;;;;;;;4.20;90.50;;;;;;5072045;28;19974;-70
2021/01/31 02:33:55;;;;;;;;;;;4.10;90.40;;;;;;5074621;28;19934;-70
2021/01/31 02:36:26;;;;;;;;;;;4.10;90.50;;;;;;5062114;28;19928;-70
2021/01/31 02:38:58;;;;;;;;;;;4.10;90.50;;;;;;5074421;28;20035;-70
2021/01/31 02:41:28;;;;;;;;;;;4.10;90.60;;;;;;5061682;28;20471;-70
2021/01/31 02:43:57;;;;;;;;;;;4.10;90.50;;;;;;5074255;28;19986;-70
2021/01/31 02:46:26;;;;;;;;;;;4.10;90.90;;;;;;5074673;28;19935;-71
2021/01/31 02:48:58;;;;;;;;;;;4.20;90.70;;;;;;5063241;28;19935;-70
2021/01/31 02:51:26;;;;;;;;;;;4.20;90.70;;;;;;5063707;28;19935;-70
2021/01/31 02:53:55;;;;;;;;;;;4.20;90.60;;;;;;5074105;28;20068;-70
2021/01/31 02:56:25;;;;;;;;;;;4.20;90.80;;;;;;5073265;28;20368;-70
2021/01/31 02:58:53;;;;;;;;;;;4.20;90.80;;;;;;5073899;28;20027;-70
2021/01/31 03:01:22;;;;;;;;;;;4.20;90.60;;;;;;5074460;28;19924;-70
2021/01/31 03:03:51;;;;;;;;;;;4.20;90.60;;;;;;5073951;28;19924;-70
2021/01/31 03:06:21;;;;;;;;;;;4.20;90.60;;;;;;5074201;28;19931;-70
2021/01/31 03:08:48;;;;;;;;;;;4.20;90.60;;;;;;5073687;28;20023;-70
2021/01/31 03:11:16;;;;;;;;;;;4.20;90.60;;;;;;5074301;28;20450;-70
2021/01/31 03:13:48;;;;;;;;;;;4.20;90.60;;;;;;5073800;28;19934;-71
2021/01/31 03:16:17;;;;;;;;;;;4.20;90.70;;;;;;5074046;28;20391;-70
2021/01/31 03:18:45;;;;;;;;;;;4.20;90.70;;;;;;5073490;28;19925;-70
2021/01/31 03:21:14;;;;;;;;;;;4.20;90.60;;;;;;5073955;28;20034;-71
2021/01/31 03:23:46;;;;;;;;;;;4.20;90.70;;;;;;5073567;28;20091;-70
2021/01/31 03:26:14;;;;;;;;;;;4.20;90.70;;;;;;5073891;28;19924;-70
2021/01/31 03:28:41;;;;;;;;;;;4.10;90.60;;;;;;5072991;28;19924;-70
2021/01/31 03:31:08;;;;;;;;;;;4.10;90.70;;;;;;5073687;28;19924;-70
2021/01/31 03:33:37;;;;;;;;;;;4.10;90.80;;;;;;5078081;28;19928;-70
2021/01/31 03:36:04;;;;;;;;;;;4.00;90.50;;;;;;5073311;28;19925;-70
2021/01/31 03:38:34;;;;;;;;;;;4.00;90.60;;;;;;5073751;28;19938;-70
2021/01/31 03:41:04;;;;;;;;;;;4.00;90.40;;;;;;5073009;28;20051;-70
2021/01/31 03:43:31;;;;;;;;;;;3.90;90.00;;;;;;5073757;28;19934;-70
2021/01/31 03:46:01;;;;;;;;;;;4.00;90.20;;;;;;5072764;28;20007;-70
2021/01/31 03:48:29;;;;;;;;;;;3.90;90.10;;;;;;5064785;28;19998;-70
2021/01/31 03:50:55;;;;;;;;;;;3.90;90.30;;;;;;5057380;28;20058;-70
2021/01/31 03:53:21;;;;;;;;;;;3.80;90.30;;;;;;5073453;28;19934;-70
2021/01/31 03:55:48;;;;;;;;;;;3.80;90.80;;;;;;5070025;28;20364;-70
2021/01/31 03:58:17;;;;;;;;;;;3.70;90.40;;;;;;5073518;28;19939;-70
2021/01/31 04:00:46;;;;;;;;;;;3.70;90.40;;;;;;5071872;28;20201;-70
2021/01/31 04:03:14;;;;;;;;;;;3.70;90.40;;;;;;5073258;28;19924;-70
2021/01/31 04:05:44;;;;;;;;;;;3.70;90.30;;;;;;5072665;28;20062;-70
2021/01/31 04:08:10;;;;;;;;;;;3.70;90.20;;;;;;5073296;28;19970;-70
2021/01/31 04:10:40;;;;;;;;;;;3.70;90.00;;;;;;5072355;28;20555;-70
2021/01/31 04:13:08;;;;;;;;;;;3.60;90.10;;;;;;5072797;28;20070;-70
2021/01/31 04:15:39;;;;;;;;;;;3.50;90.10;;;;;;5063261;28;20015;-70
2021/01/31 04:18:06;;;;;;;;;;;3.50;90.00;;;;;;5070296;28;19924;-70
2021/01/31 04:20:33;;;;;;;;;;;3.60;90.30;;;;;;5073014;28;19931;-70
2021/01/31 04:22:59;;;;;;;;;;;3.50;90.30;;;;;;5072301;28;20024;-71
2021/01/31 04:25:25;;;;;;;;;;;3.50;90.40;;;;;;5072947;28;19985;-70
2021/01/31 04:27:52;;;;;;;;;;;3.50;90.50;;;;;;5072494;28;19962;-71
2021/01/31 04:30:18;;;;;;;;;;;3.60;90.50;;;;;;5072771;28;20331;-71
2021/01/31 04:32:45;;;;;;;;;;;3.60;90.20;;;;;;5077641;28;19929;-70
2021/01/31 04:35:12;;;;;;;;;;;3.60;90.30;;;;;;5064951;28;19986;-70
2021/01/31 04:37:38;;;;;;;;;;;3.60;90.20;;;;;;5067517;28;19925;-71
2021/01/31 04:40:06;;;;;;;;;;;3.60;90.00;;;;;;5072453;28;20006;-70
2021/01/31 04:42:32;;;;;;;;;;;3.60;89.60;;;;;;5072854;28;20007;-70
2021/01/31 04:44:58;;;;;;;;;;;3.60;89.90;;;;;;5072136;28;20236;-70
2021/01/31 04:47:27;;;;;;;;;;;3.60;90.00;;;;;;5072283;28;20353;-70
2021/01/31 04:50:00;;;;;;;;;;;3.60;89.60;;;;;;5054399;28;20044;-70
2021/01/31 04:53:00;;;;;;;;;;;3.40;89.40;;;;;;5069619;28;20038;-70
2021/01/31 04:55:45;;;;;;;;;;;3.40;89.70;;;;;;4989598;28;20271;-70
2021/01/31 04:58:12;;;;;;;;;;;3.50;89.90;;;;;;4982919;28;19926;-70
2021/01/31 05:00:41;;;;;;;;;;;3.50;89.60;;;;;;5037627;28;19925;-70
2021/01/31 05:03:07;;;;;;;;;;;3.50;89.60;;;;;;5072588;28;19924;-70
2021/01/31 05:05:37;;;;;;;;;;;3.50;89.70;;;;;;5071532;28;19935;-70
2021/01/31 05:08:04;;;;;;;;;;;3.50;89.30;;;;;;5072399;28;20007;-70
2021/01/31 05:10:30;;;;;;;;;;;3.50;89.20;;;;;;5058788;28;20007;-70
2021/01/31 05:13:06;;;;;;;;;;;3.50;88.70;;;;;;5072436;28;20031;-70
2021/01/31 05:15:36;;;;;;;;;;;3.40;88.80;;;;;;5071783;28;19934;-70
2021/01/31 05:18:05;;;;;;;;;;;3.40;89.10;;;;;;5070084;28;20003;-69
2021/01/31 05:20:32;;;;;;;;;;;3.40;89.10;;;;;;5071879;28;19924;-69
2021/01/31 05:23:00;;;;;;;;;;;3.40;89.00;;;;;;5073176;28;20291;-70
2021/01/31 05:25:27;;;;;;;;;;;3.40;88.80;;;;;;5076106;28;20150;-70
2021/01/31 05:27:55;;;;;;;;;;;3.30;88.40;;;;;;5076039;28;19925;-70
2021/01/31 05:30:22;;;;;;;;;;;3.30;88.40;;;;;;5076248;28;20010;-70
2021/01/31 05:33:00;;;;;;;;;;;3.30;88.30;;;;;;5081423;28;20023;-70
2021/01/31 05:35:26;;;;;;;;;;;3.30;88.60;;;;;;5075957;28;20464;-70
2021/01/31 05:37:53;;;;;;;;;;;3.30;88.70;;;;;;5075685;28;19924;-70
2021/01/31 05:40:27;;;;;;;;;;;3.30;88.50;;;;;;5075991;28;19952;-70
2021/01/31 05:42:54;;;;;;;;;;;3.30;88.20;;;;;;5075542;28;19924;-70
2021/01/31 05:45:30;;;;;;;;;;;3.30;88.40;;;;;;5075860;28;19959;-70
2021/01/31 05:47:56;;;;;;;;;;;3.30;87.90;;;;;;5062871;28;20377;-70
2021/01/31 05:50:31;;;;;;;;;;;3.20;87.80;;;;;;5065263;28;19935;-70
2021/01/31 05:52:58;;;;;;;;;;;3.20;87.60;;;;;;5075899;28;19925;-70
2021/01/31 05:55:26;;;;;;;;;;;3.20;87.70;;;;;;5075584;28;19939;-69
2021/01/31 05:57:53;;;;;;;;;;;3.10;87.40;;;;;;5075381;28;20352;-70
2021/01/31 06:00:21;;;;;;;;;;;3.10;87.70;;;;;;5075786;28;20022;-70
2021/01/31 06:02:57;;;;;;;;;;;3.10;87.80;;;;;;5075301;28;20003;-70
2021/01/31 06:05:23;;;;;;;;;;;3.10;87.70;;;;;;5075386;28;20347;-70
2021/01/31 06:07:58;;;;;;;;;;;3.10;87.80;;;;;;5075203;28;20011;-70
2021/01/31 06:10:24;;;;;;;;;;;3.10;87.40;;;;;;5075280;28;19924;-70
2021/01/31 06:12:51;;;;;;;;;;;3.10;87.60;;;;;;5075021;28;19988;-70
2021/01/31 06:15:25;;;;;;;;;;;3.10;87.30;;;;;;5075448;28;19935;-70
2021/01/31 06:17:57;;;;;;;;;;;3.10;87.10;;;;;;5074752;28;20426;-70
2021/01/31 06:20:26;;;;;;;;;;;3.10;87.30;;;;;;5075156;28;19973;-70
2021/01/31 06:22:52;;;;;;;;;;;3.10;87.10;;;;;;5074984;28;20412;-70
2021/01/31 06:25:34;;;;;;;;;;;3.00;86.80;;;;;;5075075;28;19924;-69
2021/01/31 06:28:12;;;;;;;;;;;3.10;87.20;;;;;;5074836;28;20011;-70
2021/01/31 06:30:42;;;;;;;;;;;3.10;86.70;;;;;;5054833;28;20287;-69
2021/01/31 06:33:09;;;;;;;;;;;3.00;86.70;;;;;;5053675;28;19965;-70
2021/01/31 06:35:35;;;;;;;;;;;3.00;86.40;;;;;;5054580;28;19948;-70
2021/01/31 06:38:07;;;;;;;;;;;3.00;86.40;;;;;;5054950;28;19929;-69
2021/01/31 06:40:41;;;;;;;;;;;3.00;86.40;;;;;;5055051;28;20466;-70
2021/01/31 06:43:13;;;;;;;;;;;3.00;86.20;;;;;;5054928;28;20580;-70
2021/01/31 06:45:43;;;;;;;;;;;3.00;85.80;;;;;;5054912;28;19994;-70
2021/01/31 06:48:15;;;;;;;;;;;2.90;85.70;;;;;;5054909;28;20076;-70
2021/01/31 06:50:45;;;;;;;;;;;2.80;85.50;;;;;;5054786;28;20074;-70
2021/01/31 06:53:19;;;;;;;;;;;2.90;85.90;;;;;;5054893;28;19989;-70
2021/01/31 06:55:53;;;;;;;;;;;2.90;86.00;;;;;;5054838;28;20371;-70
2021/01/31 06:58:27;;;;;;;;;;;2.90;85.70;;;;;;5054646;28;20757;-69
2021/01/31 07:01:14;;;;;;;;;;;2.80;85.80;;;;;;5054943;28;19924;-70
2021/01/31 07:03:56;;;;;;;;;;;2.80;85.60;;;;;;5054755;28;20015;-69
2021/01/31 07:06:38;;;;;;;;;;;2.70;85.50;;;;;;5054565;28;19931;-70
2021/01/31 07:09:19;;;;;;;;;;;2.70;86.30;;;;;;5054552;28;20399;-70
2021/01/31 07:11:48;;;;;;;;;;;2.70;86.10;;;;;;5054211;28;20016;-69
2021/01/31 07:14:18;;;;;;;;;;;2.70;86.00;;;;;;5054612;28;20016;-69
2021/01/31 07:16:47;;;;;;;;;;;2.70;85.70;;;;;;5054007;28;20019;-69
2021/01/31 07:19:17;;;;;;;;;;;2.70;85.60;;;;;;5054563;28;19947;-69
2021/01/31 07:21:49;;;;;;;;;;;2.60;85.40;;;;;;5053908;28;20355;-69
2021/01/31 07:24:17;;;;;;;;;;;2.70;85.40;;;;;;5054442;28;19935;-70
2021/01/31 07:26:46;;;;;;;;;;;2.70;85.40;;;;;;5053995;28;20020;-70
2021/01/31 07:29:15;;;;;;;;;;;2.70;85.20;;;;;;5054224;28;20439;-70
2021/01/31 07:31:44;;;;;;;;;;;2.70;85.40;;;;;;5054173;28;20051;-69
2021/01/31 07:34:15;;;;;;;;;;;2.70;85.20;;;;;;5054049;28;20358;-70
2021/01/31 07:36:50;;;;;;;;;;;2.70;85.10;;;;;;5054037;28;20415;-70
2021/01/31 07:39:21;;;;;;;;;;;2.70;84.70;;;;;;5053789;28;19925;-70
2021/01/31 07:41:51;;;;;;;;;;;2.70;83.70;;;;;;5053981;28;19931;-70
2021/01/31 07:44:19;;;;;;;;;;;2.60;83.70;;;;;;5053565;28;20227;-70
2021/01/31 07:46:45;;;;;;;;;;;2.60;83.60;;;;;;5052987;28;19982;-70
2021/01/31 07:49:11;;;;;;;;;;;2.60;83.90;;;;;;5053427;28;19929;-70
2021/01/31 07:52:01;;;;;;;;;;;2.60;83.70;;;;;;5053646;28;19935;-69
2021/01/31 07:54:28;;;;;;;;;;;2.50;83.60;;;;;;5053651;28;20019;-70
2021/01/31 07:56:55;;;;;;;;;;;2.60;83.60;;;;;;5053707;28;20423;-69
2021/01/31 07:59:24;;;;;;;;;;;2.50;83.50;;;;;;5053285;28;20012;-69
2021/01/31 08:01:51;;;;;;;;;;;2.60;83.60;;;;;;5053629;28;19985;-69
2021/01/31 08:04:44;;;;;;;;;;;2.60;84.00;;;;;;5053104;28;19925;-69
2021/01/31 08:07:11;;;;;;;;;;;2.60;83.70;;;;;;5052952;28;19935;-70
2021/01/31 08:09:55;;;;;;;;;;;2.50;84.30;;;;;;5053556;28;19932;-70
2021/01/31 08:12:41;;;;;;;;;;;2.60;84.40;;;;;;5052903;28;20015;-69
2021/01/31 08:15:10;;;;;;;;;;;2.60;84.40;;;;;;5053005;28;19999;-69
2021/01/31 08:17:48;;;;;;;;;;;2.60;84.60;;;;;;5053566;28;20016;-69
2021/01/31 08:20:18;;;;;;;;;;;2.60;84.80;;;;;;5052948;28;20083;-70
2021/01/31 08:22:45;;;;;;;;;;;2.60;85.10;;;;;;5053398;28;19929;-70
2021/01/31 08:25:21;;;;;;;;;;;2.60;85.20;;;;;;5052670;28;19925;-69
2021/01/31 08:27:56;;;;;;;;;;;2.60;85.00;;;;;;5053250;28;20012;-69
2021/01/31 08:30:28;;;;;;;;;;;2.70;85.20;;;;;;5052855;28;19925;-69
2021/01/31 08:33:17;;;;;;;;;;;2.80;85.50;;;;;;5053143;28;20015;-70
2021/01/31 08:35:55;;;;;;;;;;;2.80;85.60;;;;;;5053169;28;19935;-70
2021/01/31 08:38:31;;;;;;;;;;;2.90;85.40;;;;;;5053341;28;20004;-70
2021/01/31 08:41:12;;;;;;;;;;;3.00;85.40;;;;;;5052748;28;20704;-70
2021/01/31 08:43:39;;;;;;;;;;;3.00;85.50;;;;;;5049449;28;20024;-70
2021/01/31 08:46:14;;;;;;;;;;;3.10;85.40;;;;;;5052930;28;19951;-70
2021/01/31 08:48:40;;;;;;;;;;;3.10;85.20;;;;;;5052469;28;19979;-70
2021/01/31 08:51:08;;;;;;;;;;;3.20;85.20;;;;;;5052748;28;20012;-70
2021/01/31 08:53:34;;;;;;;;;;;3.30;84.70;;;;;;5052693;28;19929;-70
2021/01/31 08:56:19;;;;;;;;;;;3.30;84.90;;;;;;5052679;28;19982;-70
2021/01/31 08:58:45;;;;;;;;;;;3.30;84.80;;;;;;5059028;28;19933;-70
2021/01/31 09:01:12;;;;;;;;;;;3.30;85.20;;;;;;5059561;28;20011;-70
2021/01/31 09:03:41;;;;;;;;;;;3.40;85.20;;;;;;5059028;28;20422;-70
2021/01/31 09:06:07;;;;;;;;;;;3.50;84.80;;;;;;5059361;28;20011;-70
2021/01/31 09:08:33;;;;;;;;;;;3.50;84.40;;;;;;5059620;28;19932;-70
2021/01/31 09:11:04;;;;;;;;;;;3.60;84.50;;;;;;5059152;28;20681;-70
2021/01/31 09:13:32;;;;;;;;;;;3.60;83.90;;;;;;5059443;28;20415;-70
2021/01/31 09:16:09;;;;;;;;;;;3.70;84.20;;;;;;5058917;28;20007;-70
2021/01/31 09:18:36;;;;;;;;;;;3.70;83.90;;;;;;5059063;28;20015;-70
2021/01/31 09:21:17;;;;;;;;;;;3.80;83.40;;;;;;5059182;28;20023;-70
2021/01/31 09:23:43;;;;;;;;;;;3.90;82.80;;;;;;5058920;28;20407;-70
2021/01/31 09:26:10;;;;;;;;;;;4.00;82.10;;;;;;5059197;28;19935;-70
2021/01/31 09:28:39;;;;;;;;;;;4.00;81.30;;;;;;5059001;28;19948;-70
2021/01/31 09:31:06;;;;;;;;;;;4.10;81.80;;;;;;5059275;28;19951;-70
2021/01/31 09:33:37;;;;;;;;;;;4.10;81.70;;;;;;5059474;28;19932;-70
2021/01/31 09:36:19;;;;;;;;;;;4.10;81.80;;;;;;5058971;28;19924;-70
2021/01/31 09:38:45;;;;;;;;;;;4.20;81.20;;;;;;5058760;28;19935;-70
2021/01/31 09:41:12;;;;;;;;;;;4.20;81.00;;;;;;5059167;28;20019;-70
2021/01/31 09:43:38;;;;;;;;;;;4.20;81.30;;;;;;5059300;28;20315;-70
2021/01/31 09:46:07;;;;;;;;;;;4.30;81.40;;;;;;5058579;28;20461;-70
2021/01/31 09:48:34;;;;;;;;;;;4.20;81.40;;;;;;5059344;28;20171;-70
2021/01/31 09:51:07;;;;;;;;;;;4.30;81.50;;;;;;5058402;28;19932;-70
2021/01/31 09:53:35;;;;;;;;;;;4.30;81.40;;;;;;5059101;28;19929;-70
2021/01/31 09:56:03;;;;;;;;;;;4.40;81.30;;;;;;5058478;28;19925;-70
2021/01/31 09:58:33;;;;;;;;;;;4.40;81.30;;;;;;5059116;28;20008;-70
2021/01/31 10:01:07;;;;;;;;;;;4.50;81.20;;;;;;5058521;28;19925;-70
2021/01/31 10:03:34;;;;;;;;;;;4.50;80.50;;;;;;5059013;28;20003;-70
2021/01/31 10:06:04;;;;;;;;;;;4.60;81.00;;;;;;5058444;28;19931;-70
2021/01/31 10:08:30;;;;;;;;;;;4.70;79.00;;;;;;5057472;28;20015;-70
2021/01/31 10:10:57;;;;;;;;;;;4.60;79.20;;;;;;5055281;28;20331;-70
2021/01/31 10:13:28;;;;;;;;;;;4.60;78.90;;;;;;5055907;28;19925;-70
2021/01/31 10:15:55;;;;;;;;;;;4.60;79.20;;;;;;5055283;28;20338;-69
2021/01/31 10:18:29;;;;;;;;;;;4.60;79.40;;;;;;5055770;28;19925;-70
2021/01/31 10:21:10;;;;;;;;;;;4.60;79.40;;;;;;5055050;28;20347;-69
2021/01/31 10:23:36;;;;;;;;;;;4.50;80.20;;;;;;5055560;28;19925;-70
2021/01/31 10:26:03;;;;;;;;;;;4.50;80.60;;;;;;5054767;28;19933;-70
2021/01/31 10:28:32;;;;;;;;;;;4.50;80.20;;;;;;5055526;28;19924;-70
2021/01/31 10:30:58;;;;;;;;;;;4.60;80.10;;;;;;5054548;28;20016;-70
2021/01/31 10:33:41;;;;;;;;;;;4.60;80.00;;;;;;5054486;28;19939;-70
2021/01/31 10:36:17;;;;;;;;;;;4.60;80.00;;;;;;5053153;28;19925;-70
2021/01/31 10:38:44;;;;;;;;;;;4.70;79.80;;;;;;5053972;28;20040;-70
2021/01/31 10:41:11;;;;;;;;;;;4.70;79.30;;;;;;5054067;28;19924;-70
2021/01/31 10:43:38;;;;;;;;;;;4.70;79.40;;;;;;5054151;28;20021;-70
2021/01/31 10:46:04;;;;;;;;;;;4.80;79.20;;;;;;5053331;28;19940;-70
2021/01/31 10:48:31;;;;;;;;;;;4.90;79.60;;;;;;5055017;28;19928;-70
2021/01/31 10:50:57;;;;;;;;;;;4.90;79.00;;;;;;5054276;28;19931;-70
2021/01/31 10:53:23;;;;;;;;;;;4.90;79.40;;;;;;5054894;28;20004;-70
2021/01/31 10:55:49;;;;;;;;;;;5.00;79.30;;;;;;5054491;28;20135;-70
2021/01/31 10:58:16;;;;;;;;;;;5.00;78.60;;;;;;5054835;28;20019;-70
2021/01/31 11:00:42;;;;;;;;;;;5.00;78.90;;;;;;5054773;28;19932;-70
2021/01/31 11:03:09;;;;;;;;;;;5.10;78.40;;;;;;5054408;28;19929;-70
2021/01/31 11:05:35;;;;;;;;;;;5.20;77.40;;;;;;5054534;28;20058;-70
2021/01/31 11:08:01;;;;;;;;;;;5.20;77.40;;;;;;5054308;28;20359;-70
2021/01/31 11:10:27;;;;;;;;;;;5.20;77.40;;;;;;5054630;28;20004;-70
2021/01/31 11:12:54;;;;;;;;;;;5.20;77.80;;;;;;5054063;28;20194;-70
2021/01/31 11:15:21;;;;;;;;;;;5.30;77.50;;;;;;5054729;28;20003;-70
2021/01/31 11:17:47;;;;;;;;;;;5.30;77.20;;;;;;5054041;28;20008;-70
2021/01/31 11:20:13;;;;;;;;;;;5.40;76.90;;;;;;5053399;28;19929;-70
2021/01/31 11:22:39;;;;;;;;;;;5.40;76.50;;;;;;5054167;28;20031;-70
2021/01/31 11:25:06;;;;;;;;;;;5.40;76.50;;;;;;5053708;28;20328;-70
2021/01/31 11:27:32;;;;;;;;;;;5.50;76.30;;;;;;5054007;28;20401;-70
2021/01/31 11:29:59;;;;;;;;;;;5.40;76.10;;;;;;5053807;28;20023;-70
2021/01/31 11:32:26;;;;;;;;;;;5.40;76.10;;;;;;5054101;28;19925;-70
2021/01/31 11:34:52;;;;;;;;;;;5.50;76.30;;;;;;5053631;28;20050;-70
2021/01/31 11:37:18;;;;;;;;;;;5.50;76.00;;;;;;5054000;28;19938;-69
2021/01/31 11:39:45;;;;;;;;;;;5.50;75.30;;;;;;5054035;28;19929;-70
2021/01/31 11:42:11;;;;;;;;;;;5.60;75.10;;;;;;5053516;28;20007;-69
2021/01/31 11:44:37;;;;;;;;;;;5.60;75.00;;;;;;5054002;28;19935;-69
2021/01/31 11:47:03;;;;;;;;;;;5.60;73.80;;;;;;5053291;28;20024;-70
2021/01/31 11:49:30;;;;;;;;;;;5.70;74.00;;;;;;5053896;28;20011;-70
2021/01/31 11:51:56;;;;;;;;;;;5.60;74.50;;;;;;5053310;28;20027;-70
2021/01/31 11:54:23;;;;;;;;;;;5.60;75.00;;;;;;5053795;28;20051;-70
2021/01/31 11:56:49;;;;;;;;;;;5.70;74.90;;;;;;5053297;28;19986;-70
2021/01/31 11:59:15;;;;;;;;;;;5.70;74.90;;;;;;5053716;28;19975;-70
2021/01/31 12:01:41;;;;;;;;;;;5.70;74.70;;;;;;5053792;28;20004;-70
2021/01/31 12:04:08;;;;;;;;;;;5.60;74.50;;;;;;5053108;28;20285;-70
2021/01/31 12:06:35;;;;;;;;;;;5.70;75.30;;;;;;5053464;28;20011;-70
2021/01/31 12:09:01;;;;;;;;;;;5.70;75.40;;;;;;5053331;28;19925;-70
2021/01/31 12:11:28;;;;;;;;;;;5.70;75.50;;;;;;5053382;28;20351;-68
2021/01/31 12:13:55;;;;;;;;;;;5.70;75.20;;;;;;5053056;28;19928;-68
2021/01/31 12:16:21;;;;;;;;;;;5.80;75.40;;;;;;5053280;28;20020;-68
2021/01/31 12:18:47;;;;;;;;;;;5.90;75.20;;;;;;5053431;28;19939;-68
2021/01/31 12:21:14;;;;;;;;;;;5.90;75.30;;;;;;5054410;28;20028;-68
2021/01/31 12:23:41;;;;;;;;;;;6.00;75.00;;;;;;5073067;28;20307;-68
2021/01/31 12:26:07;;;;;;;;;;;6.00;75.20;;;;;;5058107;28;20274;-68
2021/01/31 12:28:33;;;;;;;;;;;6.00;74.90;;;;;;5052620;28;19931;-68
2021/01/31 12:30:59;;;;;;;;;;;6.00;74.50;;;;;;5051924;28;19924;-68
2021/01/31 12:33:25;;;;;;;;;;;6.10;74.30;;;;;;5052349;28;19925;-69
2021/01/31 12:35:52;;;;;;;;;;;6.10;74.30;;;;;;5052232;28;19960;-69
2021/01/31 12:38:18;;;;;;;;;;;6.10;74.70;;;;;;5053222;28;20035;-68
2021/01/31 12:40:45;;;;;;;;;;;6.00;73.20;;;;;;5053030;28;19939;-68
2021/01/31 12:43:11;;;;;;;;;;;6.10;73.60;;;;;;5052667;28;20019;-69
2021/01/31 12:45:37;;;;;;;;;;;6.10;73.40;;;;;;5052736;28;19931;-69
2021/01/31 12:48:04;;;;;;;;;;;6.10;73.50;;;;;;5052683;28;19972;-69
2021/01/31 12:50:31;;;;;;;;;;;6.10;73.10;;;;;;5052749;28;20292;-69
2021/01/31 12:52:58;;;;;;;;;;;6.10;73.20;;;;;;5052570;28;20448;-69
2021/01/31 12:55:24;;;;;;;;;;;6.10;73.10;;;;;;5052861;28;20019;-69
2021/01/31 12:57:51;;;;;;;;;;;6.20;73.40;;;;;;5052864;28;19939;-69
2021/01/31 13:00:19;;;;;;;;;;;6.20;73.50;;;;;;5052321;28;20011;-69
2021/01/31 13:02:45;;;;;;;;;;;6.20;73.80;;;;;;5053068;28;20047;-69
2021/01/31 13:05:12;;;;;;;;;;;6.20;73.80;;;;;;5052217;28;19925;-68
2021/01/31 13:07:38;;;;;;;;;;;6.20;73.10;;;;;;5052741;28;20074;-69
2021/01/31 13:10:05;;;;;;;;;;;6.20;73.30;;;;;;5052385;28;20015;-68
2021/01/31 13:12:31;;;;;;;;;;;6.20;73.20;;;;;;5052654;28;20015;-68
2021/01/31 13:14:59;;;;;;;;;;;6.10;73.10;;;;;;5052369;28;20027;-69
2021/01/31 13:17:25;;;;;;;;;;;6.10;73.20;;;;;;5052778;28;19925;-68
2021/01/31 13:19:51;;;;;;;;;;;6.10;72.30;;;;;;5052719;28;20355;-68
2021/01/31 13:22:17;;;;;;;;;;;6.10;72.00;;;;;;5056486;28;19967;-68
2021/01/31 13:24:44;;;;;;;;;;;6.10;71.70;;;;;;5068216;28;20012;-68
2021/01/31 13:27:10;;;;;;;;;;;6.10;72.10;;;;;;5071721;28;19950;-69
2021/01/31 13:29:37;;;;;;;;;;;6.10;72.10;;;;;;5071242;28;20007;-69
2021/01/31 13:32:04;;;;;;;;;;;6.10;72.30;;;;;;5071955;28;20274;-69
2021/01/31 13:34:31;;;;;;;;;;;6.10;72.50;;;;;;5072498;28;20003;-69
2021/01/31 13:36:57;;;;;;;;;;;6.10;72.40;;;;;;5071888;28;19924;-72
2021/01/31 13:39:23;;;;;;;;;;;6.10;72.40;;;;;;5072263;28;20003;-70
2021/01/31 13:41:49;;;;;;;;;;;6.10;72.70;;;;;;5072317;28;20398;-69
2021/01/31 13:44:16;;;;;;;;;;;6.10;71.80;;;;;;5073067;28;19940;-69
2021/01/31 13:46:42;;;;;;;;;;;6.10;71.20;;;;;;5075828;28;20049;-70
2021/01/31 13:49:09;;;;;;;;;;;6.00;71.20;;;;;;5075473;28;19935;-69
2021/01/31 13:51:35;;;;;;;;;;;5.90;71.20;;;;;;5075492;28;20015;-69
2021/01/31 13:54:01;;;;;;;;;;;5.90;71.70;;;;;;5075355;28;19981;-69
2021/01/31 13:56:27;;;;;;;;;;;5.90;71.90;;;;;;5071018;28;20308;-70
2021/01/31 13:58:54;;;;;;;;;;;5.90;71.60;;;;;;5075644;28;19967;-69
2021/01/31 14:01:20;;;;;;;;;;;5.90;71.90;;;;;;5075133;28;19924;-70
2021/01/31 14:03:46;;;;;;;;;;;5.80;71.40;;;;;;5075368;28;19929;-70
2021/01/31 14:06:13;;;;;;;;;;;5.80;71.40;;;;;;5075028;28;20073;-70
2021/01/31 14:08:39;;;;;;;;;;;5.80;71.20;;;;;;5075445;28;20027;-70
2021/01/31 14:11:06;;;;;;;;;;;5.80;71.40;;;;;;5075158;28;20027;-70
2021/01/31 14:13:32;;;;;;;;;;;5.80;71.20;;;;;;5075506;28;20058;-70
2021/01/31 14:15:58;;;;;;;;;;;5.80;71.10;;;;;;5075564;28;19935;-69
2021/01/31 14:18:24;;;;;;;;;;;5.80;71.00;;;;;;5075149;28;20043;-70
2021/01/31 14:20:50;;;;;;;;;;;5.80;71.70;;;;;;5073927;28;19992;-70
2021/01/31 14:23:18;;;;;;;;;;;5.60;72.10;;;;;;5067651;28;19924;-70
2021/01/31 14:25:44;;;;;;;;;;;5.60;72.60;;;;;;5075014;28;19928;-70
2021/01/31 14:30:51;;;;;;;;;;;5.70;72.90;;;;;;5061508;28;20248;-70
2021/01/31 14:33:17;;;;;;;;;;;5.70;72.70;;;;;;5074710;28;19925;-70
2021/01/31 14:35:44;;;;;;;;;;;5.70;71.90;;;;;;5074985;28;20052;-71
2021/01/31 14:38:10;;;;;;;;;;;5.70;72.00;;;;;;5074623;28;20015;-69
2021/01/31 14:40:37;;;;;;;;;;;5.80;72.20;;;;;;5075196;28;20032;-69
2021/01/31 14:43:03;;;;;;;;;;;5.80;72.20;;;;;;5074613;28;20150;-70